sensor_id;sensor_type;location;lat;lon;timestamp;pressure;altitude;pressure_sealevel;temperature;humidity
10720;BME280;5411;58.386;15.560;2023-03-26T00:01:29;98742.72;;;-0.26;100.00
10720;BME280;5411;58.386;15.560;2023-03-26T00:03:59;98739.66;;;-0.29;100.00
10720;BME280;5411;58.386;15.560;2023-03-26T00:06:29;98739.81;;;-0.31;100.00
10720;BME280;5411;58.386;15.560;2023-03-26T00:08:59;98736.19;;;-0.30;100.00
10720;BME280;5411;58.386;15.560;2023-03-26T00:11:28;98741.44;;;-0.30;100.00
10720;BME280;5411;58.386;15.560;2023-03-26T00:13:58;98739.91;;;-0.24;100.00
10720;BME280;5411;58.386;15.560;2023-03-26T00:16:30;98745.00;;;-0.23;100.00
10720;BME280;5411;58.386;15.560;2023-03-26T00:18:58;98746.97;;;-0.25;100.00
10720;BME280;5411;58.386;15.560;2023-03-26T00:21:28;98738.13;;;-0.24;100.00
10720;BME280;5411;58.386;15.560;2023-03-26T00:23:59;98732.84;;;-0.24;100.00
10720;BME280;5411;58.386;15.560;2023-03-26T00:26:30;98736.84;;;-0.28;100.00
10720;BME280;5411;58.386;15.560;2023-03-26T00:29:04;98744.91;;;-0.29;100.00
10720;BME280;5411;58.386;15.560;2023-03-26T00:31:36;98742.63;;;-0.32;100.00
10720;BME280;5411;58.386;15.560;2023-03-26T00:34:12;98744.41;;;-0.33;100.00
10720;BME280;5411;58.386;15.560;2023-03-26T00:36:41;98754.63;;;-0.38;100.00
10720;BME280;5411;58.386;15.560;2023-03-26T00:39:10;98745.63;;;-0.44;100.00
10720;BME280;5411;58.386;15.560;2023-03-26T00:41:46;98763.88;;;-0.50;100.00
10720;BME280;5411;58.386;15.560;2023-03-26T00:44:17;98750.78;;;-0.58;100.00
10720;BME280;5411;58.386;15.560;2023-03-26T00:46:45;98758.84;;;-0.60;100.00
10720;BME280;5411;58.386;15.560;2023-03-26T00:49:14;98749.16;;;-0.59;100.00
10720;BME280;5411;58.386;15.560;2023-03-26T00:51:42;98746.69;;;-0.61;100.00
10720;BME280;5411;58.386;15.560;2023-03-26T00:54:13;98756.22;;;-0.60;100.00
10720;BME280;5411;58.386;15.560;2023-03-26T00:56:44;98757.22;;;-0.61;100.00
10720;BME280;5411;58.386;15.560;2023-03-26T00:59:12;98764.25;;;-0.61;100.00
10720;BME280;5411;58.386;15.560;2023-03-26T01:01:42;98765.25;;;-0.62;100.00
10720;BME280;5411;58.386;15.560;2023-03-26T01:04:21;98754.75;;;-0.62;100.00
10720;BME280;5411;58.386;15.560;2023-03-26T01:06:54;98765.25;;;-0.62;100.00
10720;BME280;5411;58.386;15.560;2023-03-26T01:09:29;98749.00;;;-0.66;100.00
10720;BME280;5411;58.386;15.560;2023-03-26T01:11:59;98758.06;;;-0.68;100.00
10720;BME280;5411;58.386;15.560;2023-03-26T01:14:29;98753.66;;;-0.76;100.00
10720;BME280;5411;58.386;15.560;2023-03-26T01:17:00;98753.16;;;-0.80;100.00
10720;BME280;5411;58.386;15.560;2023-03-26T01:19:34;98768.91;;;-0.80;100.00
10720;BME280;5411;58.386;15.560;2023-03-26T01:22:05;98781.44;;;-0.82;100.00
10720;BME280;5411;58.386;15.560;2023-03-26T01:24:37;98777.00;;;-0.81;100.00
10720;BME280;5411;58.386;15.560;2023-03-26T01:27:17;98775.00;;;-0.79;100.00
10720;BME280;5411;58.386;15.560;2023-03-26T01:29:52;98777.16;;;-0.83;100.00
10720;BME280;5411;58.386;15.560;2023-03-26T01:32:26;98752.88;;;-0.85;100.00
10720;BME280;5411;58.386;15.560;2023-03-26T01:35:18;98776.84;;;-0.88;100.00
10720;BME280;5411;58.386;15.560;2023-03-26T01:37:57;98792.25;;;-0.93;100.00
10720;BME280;5411;58.386;15.560;2023-03-26T01:40:41;98778.03;;;-0.98;100.00
10720;BME280;5411;58.386;15.560;2023-03-26T01:43:23;98767.69;;;-1.00;100.00
10720;BME280;5411;58.386;15.560;2023-03-26T01:45:55;98768.03;;;-1.03;100.00
10720;BME280;5411;58.386;15.560;2023-03-26T01:48:30;98779.66;;;-1.05;100.00
10720;BME280;5411;58.386;15.560;2023-03-26T01:50:58;98779.50;;;-1.04;100.00
10720;BME280;5411;58.386;15.560;2023-03-26T01:53:26;98793.59;;;-1.05;100.00
10720;BME280;5411;58.386;15.560;2023-03-26T01:56:09;98804.09;;;-1.05;100.00
10720;BME280;5411;58.386;15.560;2023-03-26T01:58:53;98803.47;;;-1.07;100.00
10720;BME280;5411;58.386;15.560;2023-03-26T02:01:29;98799.69;;;-1.04;100.00
10720;BME280;5411;58.386;15.560;2023-03-26T02:04:05;98786.72;;;-1.06;100.00
10720;BME280;5411;58.386;15.560;2023-03-26T02:06:42;98792.78;;;-1.05;100.00
10720;BME280;5411;58.386;15.560;2023-03-26T02:09:14;98791.63;;;-1.03;100.00
10720;BME280;5411;58.386;15.560;2023-03-26T02:11:54;98780.81;;;-1.00;100.00
10720;BME280;5411;58.386;15.560;2023-03-26T02:14:29;98792.94;;;-0.99;100.00
10720;BME280;5411;58.386;15.560;2023-03-26T02:16:58;98780.16;;;-0.94;100.00
10720;BME280;5411;58.386;15.560;2023-03-26T02:19:26;98795.25;;;-0.96;100.00
10720;BME280;5411;58.386;15.560;2023-03-26T02:21:55;98792.28;;;-1.01;100.00
10720;BME280;5411;58.386;15.560;2023-03-26T02:24:25;98793.44;;;-1.03;100.00
10720;BME280;5411;58.386;15.560;2023-03-26T02:26:55;98798.03;;;-1.05;100.00
10720;BME280;5411;58.386;15.560;2023-03-26T02:29:23;98805.75;;;-1.04;100.00
10720;BME280;5411;58.386;15.560;2023-03-26T02:31:52;98799.03;;;-1.07;100.00
10720;BME280;5411;58.386;15.560;2023-03-26T02:34:21;98805.28;;;-1.08;100.00
10720;BME280;5411;58.386;15.560;2023-03-26T02:36:49;98809.88;;;-1.10;100.00
10720;BME280;5411;58.386;15.560;2023-03-26T02:39:17;98802.16;;;-1.11;100.00
10720;BME280;5411;58.386;15.560;2023-03-26T02:41:46;98805.94;;;-1.14;100.00
10720;BME280;5411;58.386;15.560;2023-03-26T02:44:18;98805.28;;;-1.16;100.00
10720;BME280;5411;58.386;15.560;2023-03-26T02:46:47;98813.16;;;-1.16;100.00
10720;BME280;5411;58.386;15.560;2023-03-26T02:49:16;98817.91;;;-1.11;100.00
10720;BME280;5411;58.386;15.560;2023-03-26T02:51:44;98816.75;;;-1.09;100.00
10720;BME280;5411;58.386;15.560;2023-03-26T02:54:13;98808.38;;;-1.04;100.00
10720;BME280;5411;58.386;15.560;2023-03-26T02:56:41;98819.84;;;-1.05;100.00
10720;BME280;5411;58.386;15.560;2023-03-26T02:59:10;98823.00;;;-1.10;100.00
10720;BME280;5411;58.386;15.560;2023-03-26T03:01:40;98820.69;;;-1.13;100.00
10720;BME280;5411;58.386;15.560;2023-03-26T03:04:09;98814.13;;;-1.17;100.00
10720;BME280;5411;58.386;15.560;2023-03-26T03:06:38;98823.16;;;-1.19;100.00
10720;BME280;5411;58.386;15.560;2023-03-26T03:09:07;98814.94;;;-1.16;100.00
10720;BME280;5411;58.386;15.560;2023-03-26T03:11:35;98813.31;;;-1.17;100.00
10720;BME280;5411;58.386;15.560;2023-03-26T03:14:03;98819.06;;;-1.14;100.00
10720;BME280;5411;58.386;15.560;2023-03-26T03:16:32;98830.38;;;-1.13;100.00
10720;BME280;5411;58.386;15.560;2023-03-26T03:19:02;98829.06;;;-1.09;100.00
10720;BME280;5411;58.386;15.560;2023-03-26T03:21:31;98822.81;;;-1.08;100.00
10720;BME280;5411;58.386;15.560;2023-03-26T03:23:59;98830.03;;;-1.10;100.00
10720;BME280;5411;58.386;15.560;2023-03-26T03:26:28;98831.53;;;-1.08;100.00
10720;BME280;5411;58.386;15.560;2023-03-26T03:29:00;98830.34;;;-1.05;100.00
10720;BME280;5411;58.386;15.560;2023-03-26T03:31:29;98829.06;;;-1.09;100.00
10720;BME280;5411;58.386;15.560;2023-03-26T03:33:57;98835.44;;;-1.12;100.00
10720;BME280;5411;58.386;15.560;2023-03-26T03:36:27;98832.00;;;-1.12;100.00
10720;BME280;5411;58.386;15.560;2023-03-26T03:38:56;98832.34;;;-1.07;100.00
10720;BME280;5411;58.386;15.560;2023-03-26T03:41:28;98831.69;;;-1.09;100.00
10720;BME280;5411;58.386;15.560;2023-03-26T03:44:04;98830.69;;;-1.08;100.00
10720;BME280;5411;58.386;15.560;2023-03-26T03:46:33;98832.16;;;-1.14;100.00
10720;BME280;5411;58.386;15.560;2023-03-26T03:49:02;98828.88;;;-1.16;100.00
10720;BME280;5411;58.386;15.560;2023-03-26T03:51:32;98828.91;;;-1.24;100.00
10720;BME280;5411;58.386;15.560;2023-03-26T03:54:00;98832.03;;;-1.28;100.00
10720;BME280;5411;58.386;15.560;2023-03-26T03:56:30;98848.91;;;-1.31;100.00
10720;BME280;5411;58.386;15.560;2023-03-26T03:58:58;98825.66;;;-1.34;100.00
10720;BME280;5411;58.386;15.560;2023-03-26T04:01:28;98843.19;;;-1.34;100.00
10720;BME280;5411;58.386;15.560;2023-03-26T04:03:56;98840.22;;;-1.31;100.00
10720;BME280;5411;58.386;15.560;2023-03-26T04:06:25;98840.72;;;-1.28;100.00
10720;BME280;5411;58.386;15.560;2023-03-26T04:08:58;98845.63;;;-1.25;100.00
10720;BME280;5411;58.386;15.560;2023-03-26T04:11:27;98834.81;;;-1.30;100.00
10720;BME280;5411;58.386;15.560;2023-03-26T04:13:55;98841.38;;;-1.34;100.00
10720;BME280;5411;58.386;15.560;2023-03-26T04:16:23;98837.94;;;-1.34;100.00
10720;BME280;5411;58.386;15.560;2023-03-26T04:18:51;98834.50;;;-1.35;100.00
10720;BME280;5411;58.386;15.560;2023-03-26T04:21:19;98833.03;;;-1.37;100.00
10720;BME280;5411;58.386;15.560;2023-03-26T04:23:48;98839.91;;;-1.36;100.00
10720;BME280;5411;58.386;15.560;2023-03-26T04:26:18;98852.34;;;-1.38;100.00
10720;BME280;5411;58.386;15.560;2023-03-26T04:28:48;98841.69;;;-1.45;100.00
10720;BME280;5411;58.386;15.560;2023-03-26T04:31:20;98841.06;;;-1.47;100.00
10720;BME280;5411;58.386;15.560;2023-03-26T04:33:51;98845.28;;;-1.46;100.00
10720;BME280;5411;58.386;15.560;2023-03-26T04:36:24;98850.72;;;-1.48;100.00
10720;BME280;5411;58.386;15.560;2023-03-26T04:38:54;98844.00;;;-1.42;100.00
10720;BME280;5411;58.386;15.560;2023-03-26T04:41:29;98842.19;;;-1.41;100.00
10720;BME280;5411;58.386;15.560;2023-03-26T04:43:59;98850.88;;;-1.41;100.00
10720;BME280;5411;58.386;15.560;2023-03-26T04:46:28;98852.69;;;-1.41;100.00
10720;BME280;5411;58.386;15.560;2023-03-26T04:49:00;98857.59;;;-1.38;100.00
10720;BME280;5411;58.386;15.560;2023-03-26T04:51:33;98854.50;;;-1.34;100.00
10720;BME280;5411;58.386;15.560;2023-03-26T04:54:05;98851.38;;;-1.37;100.00
10720;BME280;5411;58.386;15.560;2023-03-26T04:56:39;98849.56;;;-1.45;100.00
10720;BME280;5411;58.386;15.560;2023-03-26T04:59:13;98852.69;;;-1.50;100.00
10720;BME280;5411;58.386;15.560;2023-03-26T05:01:44;98854.66;;;-1.52;100.00
10720;BME280;5411;58.386;15.560;2023-03-26T05:04:12;98848.09;;;-1.48;100.00
10720;BME280;5411;58.386;15.560;2023-03-26T05:06:40;98847.75;;;-1.45;100.00
10720;BME280;5411;58.386;15.560;2023-03-26T05:09:09;98844.31;;;-1.45;100.00
10720;BME280;5411;58.386;15.560;2023-03-26T05:11:38;98852.84;;;-1.43;100.00
10720;BME280;5411;58.386;15.560;2023-03-26T05:14:07;98850.06;;;-1.41;100.00
10720;BME280;5411;58.386;15.560;2023-03-26T05:16:38;98850.72;;;-1.39;100.00
10720;BME280;5411;58.386;15.560;2023-03-26T05:19:08;98849.06;;;-1.40;100.00
10720;BME280;5411;58.386;15.560;2023-03-26T05:21:36;98855.47;;;-1.43;100.00
10720;BME280;5411;58.386;15.560;2023-03-26T05:24:04;98853.81;;;-1.44;100.00
10720;BME280;5411;58.386;15.560;2023-03-26T05:26:33;98849.41;;;-1.44;100.00
10720;BME280;5411;58.386;15.560;2023-03-26T05:29:03;98856.28;;;-1.42;100.00
10720;BME280;5411;58.386;15.560;2023-03-26T05:31:32;98841.53;;;-1.44;100.00
10720;BME280;5411;58.386;15.560;2023-03-26T05:34:00;98847.59;;;-1.43;100.00
10720;BME280;5411;58.386;15.560;2023-03-26T05:36:31;98850.88;;;-1.41;100.00
10720;BME280;5411;58.386;15.560;2023-03-26T05:39:02;98849.25;;;-1.34;100.00
10720;BME280;5411;58.386;15.560;2023-03-26T05:41:31;98849.25;;;-1.34;100.00
10720;BME280;5411;58.386;15.560;2023-03-26T05:43:59;98853.31;;;-1.31;100.00
10720;BME280;5411;58.386;15.560;2023-03-26T05:46:30;98848.06;;;-1.31;100.00
10720;BME280;5411;58.386;15.560;2023-03-26T05:48:58;98846.44;;;-1.32;100.00
10720;BME280;5411;58.386;15.560;2023-03-26T05:51:27;98839.75;;;-1.35;100.00
10720;BME280;5411;58.386;15.560;2023-03-26T05:53:55;98850.22;;;-1.27;100.00
10720;BME280;5411;58.386;15.560;2023-03-26T05:56:23;98859.72;;;-1.26;100.00
10720;BME280;5411;58.386;15.560;2023-03-26T05:58:51;98852.34;;;-1.22;100.00
10720;BME280;5411;58.386;15.560;2023-03-26T06:01:20;98864.50;;;-1.21;100.00
10720;BME280;5411;58.386;15.560;2023-03-26T06:03:49;98844.50;;;-1.22;100.00
10720;BME280;5411;58.386;15.560;2023-03-26T06:06:19;98854.97;;;-1.22;100.00
10720;BME280;5411;58.386;15.560;2023-03-26T06:08:49;98863.31;;;-1.19;100.00
10720;BME280;5411;58.386;15.560;2023-03-26T06:11:29;98862.00;;;-1.15;100.00
10720;BME280;5411;58.386;15.560;2023-03-26T06:13:58;98858.25;;;-1.12;100.00
10720;BME280;5411;58.386;15.560;2023-03-26T06:16:26;98856.13;;;-1.09;100.00
10720;BME280;5411;58.386;15.560;2023-03-26T06:18:56;98870.88;;;-1.08;100.00
10720;BME280;5411;58.386;15.560;2023-03-26T06:21:25;98857.56;;;-1.06;100.00
10720;BME280;5411;58.386;15.560;2023-03-26T06:23:54;98875.94;;;-1.06;100.00
10720;BME280;5411;58.386;15.560;2023-03-26T06:26:22;98879.06;;;-1.02;100.00
10720;BME280;5411;58.386;15.560;2023-03-26T06:28:50;98880.50;;;-0.92;100.00
10720;BME280;5411;58.386;15.560;2023-03-26T06:31:18;98881.19;;;-0.82;100.00
10720;BME280;5411;58.386;15.560;2023-03-26T06:33:47;98865.22;;;-0.72;100.00
10720;BME280;5411;58.386;15.560;2023-03-26T06:36:16;98877.66;;;-0.66;100.00
10720;BME280;5411;58.386;15.560;2023-03-26T06:38:45;98878.66;;;-0.59;100.00
10720;BME280;5411;58.386;15.560;2023-03-26T06:41:13;98886.19;;;-0.56;100.00
10720;BME280;5411;58.386;15.560;2023-03-26T06:43:41;98882.38;;;-0.53;100.00
10720;BME280;5411;58.386;15.560;2023-03-26T06:46:10;98883.03;;;-0.43;100.00
10720;BME280;5411;58.386;15.560;2023-03-26T06:48:39;98890.91;;;-0.43;100.00
10720;BME280;5411;58.386;15.560;2023-03-26T06:51:08;98895.53;;;-0.45;100.00
10720;BME280;5411;58.386;15.560;2023-03-26T06:53:38;98895.47;;;-0.37;100.00
10720;BME280;5411;58.386;15.560;2023-03-26T06:56:07;98903.34;;;-0.37;100.00
10720;BME280;5411;58.386;15.560;2023-03-26T06:58:36;98903.50;;;-0.30;100.00
10720;BME280;5411;58.386;15.560;2023-03-26T07:01:04;98904.44;;;-0.15;100.00
10720;BME280;5411;58.386;15.560;2023-03-26T07:03:33;98905.53;;;-0.02;100.00
10720;BME280;5411;58.386;15.560;2023-03-26T07:06:01;98911.41;;;0.09;100.00
10720;BME280;5411;58.386;15.560;2023-03-26T07:08:29;98911.22;;;0.10;100.00
10720;BME280;5411;58.386;15.560;2023-03-26T07:11:00;98910.25;;;0.11;100.00
10720;BME280;5411;58.386;15.560;2023-03-26T07:13:28;98902.38;;;0.03;100.00
10720;BME280;5411;58.386;15.560;2023-03-26T07:15:57;98896.66;;;-0.01;100.00
10720;BME280;5411;58.386;15.560;2023-03-26T07:18:25;98893.72;;;-0.06;100.00
10720;BME280;5411;58.386;15.560;2023-03-26T07:20:53;98901.09;;;-0.01;100.00
10720;BME280;5411;58.386;15.560;2023-03-26T07:23:22;98906.38;;;-0.01;100.00
10720;BME280;5411;58.386;15.560;2023-03-26T07:25:54;98900.91;;;0.00;100.00
10720;BME280;5411;58.386;15.560;2023-03-26T07:28:31;98903.84;;;0.06;100.00
10720;BME280;5411;58.386;15.560;2023-03-26T07:31:09;98908.47;;;0.04;100.00
10720;BME280;5411;58.386;15.560;2023-03-26T07:33:45;98896.53;;;-0.07;100.00
10720;BME280;5411;58.386;15.560;2023-03-26T07:36:23;98905.22;;;-0.07;100.00
10720;BME280;5411;58.386;15.560;2023-03-26T07:39:06;98917.53;;;-0.07;100.00
10720;BME280;5411;58.386;15.560;2023-03-26T07:41:42;98903.53;;;0.00;100.00
10720;BME280;5411;58.386;15.560;2023-03-26T07:44:42;98902.59;;;-0.07;100.00
10720;BME280;5411;58.386;15.560;2023-03-26T07:47:20;98895.19;;;-0.03;100.00
10720;BME280;5411;58.386;15.560;2023-03-26T07:49:53;98894.88;;;-0.08;100.00
10720;BME280;5411;58.386;15.560;2023-03-26T07:52:24;98889.78;;;-0.02;100.00
10720;BME280;5411;58.386;15.560;2023-03-26T07:54:53;98892.22;;;0.00;100.00
10720;BME280;5411;58.386;15.560;2023-03-26T07:57:31;98898.59;;;0.06;100.00
10720;BME280;5411;58.386;15.560;2023-03-26T08:00:07;98890.38;;;0.09;100.00
10720;BME280;5411;58.386;15.560;2023-03-26T08:03:01;98894.31;;;0.13;100.00
10720;BME280;5411;58.386;15.560;2023-03-26T08:05:34;98908.44;;;0.12;100.00
10720;BME280;5411;58.386;15.560;2023-03-26T08:08:15;98912.34;;;0.16;100.00
10720;BME280;5411;58.386;15.560;2023-03-26T08:11:01;98915.59;;;0.26;100.00
10720;BME280;5411;58.386;15.560;2023-03-26T08:13:39;98916.84;;;0.38;100.00
10720;BME280;5411;58.386;15.560;2023-03-26T08:16:18;98917.66;;;0.39;100.00
10720;BME280;5411;58.386;15.560;2023-03-26T08:18:58;98916.66;;;0.40;100.00
10720;BME280;5411;58.386;15.560;2023-03-26T08:21:33;98913.91;;;0.33;100.00
10720;BME280;5411;58.386;15.560;2023-03-26T08:24:07;98915.22;;;0.29;100.00
10720;BME280;5411;58.386;15.560;2023-03-26T08:26:44;98919.81;;;0.35;100.00
10720;BME280;5411;58.386;15.560;2023-03-26T08:29:19;98919.91;;;0.42;100.00
10720;BME280;5411;58.386;15.560;2023-03-26T08:31:53;98922.72;;;0.40;100.00
10720;BME280;5411;58.386;15.560;2023-03-26T08:34:23;98914.38;;;0.37;100.00
10720;BME280;5411;58.386;15.560;2023-03-26T08:36:51;98915.06;;;0.30;100.00
10720;BME280;5411;58.386;15.560;2023-03-26T08:39:19;98915.69;;;0.32;100.00
10720;BME280;5411;58.386;15.560;2023-03-26T08:42:28;98909.47;;;0.33;100.00
10720;BME280;5411;58.386;15.560;2023-03-26T08:45:32;98916.41;;;0.26;100.00
10720;BME280;5411;58.386;15.560;2023-03-26T08:48:40;98919.38;;;0.23;100.00
10720;BME280;5411;58.386;15.560;2023-03-26T08:55:18;98910.63;;;0.31;100.00
10720;BME280;5411;58.386;15.560;2023-03-26T09:07:58;98915.88;;;0.54;100.00
10720;BME280;5411;58.386;15.560;2023-03-26T09:10:57;98911.81;;;0.51;100.00
10720;BME280;5411;58.386;15.560;2023-03-26T09:16:54;98916.66;;;0.40;100.00
10720;BME280;5411;58.386;15.560;2023-03-26T09:20:06;98915.84;;;0.39;100.00
10720;BME280;5411;58.386;15.560;2023-03-26T09:26:16;98922.63;;;0.56;100.00
10720;BME280;5411;58.386;15.560;2023-03-26T09:29:15;98916.84;;;0.61;100.00
10720;BME280;5411;58.386;15.560;2023-03-26T09:32:09;98923.59;;;0.55;100.00
10720;BME280;5411;58.386;15.560;2023-03-26T09:35:02;98927.06;;;0.56;100.00
10720;BME280;5411;58.386;15.560;2023-03-26T09:37:52;98926.56;;;0.60;99.95
10720;BME280;5411;58.386;15.560;2023-03-26T09:40:33;98917.91;;;0.52;100.00
10720;BME280;5411;58.386;15.560;2023-03-26T09:43:34;98916.94;;;0.45;100.00
10720;BME280;5411;58.386;15.560;2023-03-26T09:46:16;98926.97;;;0.41;100.00
10720;BME280;5411;58.386;15.560;2023-03-26T09:49:22;98925.81;;;0.44;100.00
10720;BME280;5411;58.386;15.560;2023-03-26T09:52:15;98930.75;;;0.47;100.00
10720;BME280;5411;58.386;15.560;2023-03-26T09:55:21;98918.47;;;0.39;100.00
10720;BME280;5411;58.386;15.560;2023-03-26T10:01:05;98928.69;;;0.57;100.00
10720;BME280;5411;58.386;15.560;2023-03-26T10:03:48;98918.91;;;0.51;100.00
10720;BME280;5411;58.386;15.560;2023-03-26T10:06:26;98933.31;;;0.55;100.00
10720;BME280;5411;58.386;15.560;2023-03-26T10:09:06;98933.50;;;0.53;100.00
10720;BME280;5411;58.386;15.560;2023-03-26T10:11:55;98935.13;;;0.54;100.00
10720;BME280;5411;58.386;15.560;2023-03-26T10:14:28;98937.59;;;0.56;100.00
10720;BME280;5411;58.386;15.560;2023-03-26T10:17:08;98943.03;;;0.54;100.00
10720;BME280;5411;58.386;15.560;2023-03-26T10:19:51;98933.97;;;0.57;99.89
10720;BME280;5411;58.386;15.560;2023-03-26T10:22:34;98948.34;;;0.69;100.00
10720;BME280;5411;58.386;15.560;2023-03-26T10:25:30;98947.66;;;0.75;99.93
10720;BME280;5411;58.386;15.560;2023-03-26T10:28:15;98943.31;;;0.82;100.00
10720;BME280;5411;58.386;15.560;2023-03-26T10:31:06;98930.53;;;1.02;99.10
10720;BME280;5411;58.386;15.560;2023-03-26T10:33:53;98943.94;;;1.07;97.93
10720;BME280;5411;58.386;15.560;2023-03-26T10:36:30;98948.88;;;1.10;97.96
10720;BME280;5411;58.386;15.560;2023-03-26T10:39:20;98963.56;;;1.27;98.56
10720;BME280;5411;58.386;15.560;2023-03-26T10:42:28;98966.84;;;1.29;96.51
10720;BME280;5411;58.386;15.560;2023-03-26T10:45:27;98970.94;;;1.32;96.28
10720;BME280;5411;58.386;15.560;2023-03-26T10:48:15;98965.72;;;1.24;96.15
10720;BME280;5411;58.386;15.560;2023-03-26T10:51:33;98970.63;;;1.27;97.06
10720;BME280;5411;58.386;15.560;2023-03-26T10:54:14;98974.94;;;1.42;96.80
10720;BME280;5411;58.386;15.560;2023-03-26T10:56:48;98978.22;;;1.45;95.00
10720;BME280;5411;58.386;15.560;2023-03-26T10:59:17;98982.25;;;1.55;96.98
10720;BME280;5411;58.386;15.560;2023-03-26T11:01:49;98978.25;;;1.59;93.74
10720;BME280;5411;58.386;15.560;2023-03-26T11:04:27;98969.16;;;1.62;93.66
10720;BME280;5411;58.386;15.560;2023-03-26T11:07:07;98982.41;;;1.54;93.27
10720;BME280;5411;58.386;15.560;2023-03-26T11:09:46;98984.22;;;1.53;95.46
10720;BME280;5411;58.386;15.560;2023-03-26T11:12:22;98983.13;;;1.62;96.46
10720;BME280;5411;58.386;15.560;2023-03-26T11:15:02;98986.97;;;1.74;94.97
10720;BME280;5411;58.386;15.560;2023-03-26T11:17:43;98983.34;;;1.90;94.52
10720;BME280;5411;58.386;15.560;2023-03-26T11:20:16;98975.63;;;1.89;92.95
10720;BME280;5411;58.386;15.560;2023-03-26T11:22:57;98968.53;;;2.04;94.00
10720;BME280;5411;58.386;15.560;2023-03-26T11:25:50;98977.38;;;2.11;91.86
10720;BME280;5411;58.386;15.560;2023-03-26T11:28:33;98977.09;;;2.06;92.06
10720;BME280;5411;58.386;15.560;2023-03-26T11:31:11;98981.00;;;2.10;93.23
10720;BME280;5411;58.386;15.560;2023-03-26T11:33:47;98979.06;;;2.19;91.95
10720;BME280;5411;58.386;15.560;2023-03-26T11:36:22;98981.06;;;2.17;92.95
10720;BME280;5411;58.386;15.560;2023-03-26T11:38:56;98978.72;;;2.22;92.29
10720;BME280;5411;58.386;15.560;2023-03-26T11:41:26;98982.34;;;2.21;92.04
10720;BME280;5411;58.386;15.560;2023-03-26T11:43:59;98979.53;;;2.22;91.19
10720;BME280;5411;58.386;15.560;2023-03-26T11:46:36;98979.53;;;2.22;92.09
10720;BME280;5411;58.386;15.560;2023-03-26T11:49:18;98981.81;;;2.25;92.82
10720;BME280;5411;58.386;15.560;2023-03-26T11:51:48;98974.97;;;2.31;92.20
10720;BME280;5411;58.386;15.560;2023-03-26T11:54:18;98971.50;;;2.30;92.25
10720;BME280;5411;58.386;15.560;2023-03-26T11:56:49;98970.03;;;2.28;92.60
10720;BME280;5411;58.386;15.560;2023-03-26T11:59:34;98979.19;;;2.25;90.99
10720;BME280;5411;58.386;15.560;2023-03-26T12:02:24;98977.06;;;2.21;90.36
10720;BME280;5411;58.386;15.560;2023-03-26T12:05:10;98977.19;;;2.12;88.92
10720;BME280;5411;58.386;15.560;2023-03-26T12:07:49;98983.19;;;2.06;89.25
10720;BME280;5411;58.386;15.560;2023-03-26T12:10:24;98992.63;;;2.01;90.87
10720;BME280;5411;58.386;15.560;2023-03-26T12:12:55;98981.19;;;2.08;89.16
10720;BME280;5411;58.386;15.560;2023-03-26T12:15:25;98981.25;;;2.15;90.54
10720;BME280;5411;58.386;15.560;2023-03-26T12:18:21;98976.16;;;2.28;88.22
10720;BME280;5411;58.386;15.560;2023-03-26T12:21:01;98980.59;;;2.28;86.41
10720;BME280;5411;58.386;15.560;2023-03-26T12:26:46;98966.41;;;2.14;87.25
10720;BME280;5411;58.386;15.560;2023-03-26T12:29:17;98982.63;;;2.11;89.09
10720;BME280;5411;58.386;15.560;2023-03-26T12:31:54;98983.19;;;2.06;88.50
10720;BME280;5411;58.386;15.560;2023-03-26T12:34:31;98991.38;;;1.97;86.74
10720;BME280;5411;58.386;15.560;2023-03-26T12:37:03;98992.81;;;1.85;89.08
10720;BME280;5411;58.386;15.560;2023-03-26T12:39:37;99000.72;;;1.85;87.50
10720;BME280;5411;58.386;15.560;2023-03-26T12:42:28;98998.28;;;1.83;87.85
10720;BME280;5411;58.386;15.560;2023-03-26T12:45:20;98996.53;;;1.90;89.43
10720;BME280;5411;58.386;15.560;2023-03-26T12:47:50;98992.72;;;1.93;88.33
10720;BME280;5411;58.386;15.560;2023-03-26T12:50:44;98998.16;;;1.76;86.57
10720;BME280;5411;58.386;15.560;2023-03-26T12:53:40;99002.50;;;1.55;87.52
10720;BME280;5411;58.386;15.560;2023-03-26T12:56:19;98997.41;;;1.53;89.67
10720;BME280;5411;58.386;15.560;2023-03-26T12:59:10;99001.84;;;1.53;89.86
10720;BME280;5411;58.386;15.560;2023-03-26T13:01:49;99008.41;;;1.57;89.74
10720;BME280;5411;58.386;15.560;2023-03-26T13:04:54;99011.22;;;1.55;89.21
10720;BME280;5411;58.386;15.560;2023-03-26T13:07:42;99004.78;;;1.58;89.92
10720;BME280;5411;58.386;15.560;2023-03-26T13:10:28;99001.75;;;1.61;89.43
10720;BME280;5411;58.386;15.560;2023-03-26T13:13:10;99006.66;;;1.49;89.41
10720;BME280;5411;58.386;15.560;2023-03-26T13:15:50;99011.25;;;1.32;90.52
10720;BME280;5411;58.386;15.560;2023-03-26T13:18:29;99001.50;;;1.18;89.99
10720;BME280;5411;58.386;15.560;2023-03-26T13:21:30;99009.41;;;1.18;92.05
10720;BME280;5411;58.386;15.560;2023-03-26T13:24:09;99008.19;;;1.21;91.87
10720;BME280;5411;58.386;15.560;2023-03-26T13:26:52;99011.13;;;1.26;90.71
10720;BME280;5411;58.386;15.560;2023-03-26T13:29:31;99013.47;;;1.21;90.59
10720;BME280;5411;58.386;15.560;2023-03-26T13:32:08;99026.38;;;1.16;90.75
10720;BME280;5411;58.386;15.560;2023-03-26T13:35:09;99023.25;;;1.12;91.81
10720;BME280;5411;58.386;15.560;2023-03-26T13:37:57;99022.94;;;1.07;91.19
10720;BME280;5411;58.386;15.560;2023-03-26T13:40:35;99033.03;;;1.03;92.14
10720;BME280;5411;58.386;15.560;2023-03-26T13:43:31;99030.41;;;1.03;92.01
10720;BME280;5411;58.386;15.560;2023-03-26T13:46:13;99029.50;;;1.11;91.71
10720;BME280;5411;58.386;15.560;2023-03-26T13:48:50;99030.16;;;1.13;92.50
10720;BME280;5411;58.386;15.560;2023-03-26T13:51:23;99038.06;;;1.13;93.26
10720;BME280;5411;58.386;15.560;2023-03-26T13:54:00;99042.69;;;1.11;92.99
10720;BME280;5411;58.386;15.560;2023-03-26T13:56:35;99038.75;;;1.07;93.18
10720;BME280;5411;58.386;15.560;2023-03-26T13:59:13;99032.41;;;0.93;93.33
10720;BME280;5411;58.386;15.560;2023-03-26T14:01:47;99031.38;;;0.80;93.15
10720;BME280;5411;58.386;15.560;2023-03-26T14:04:24;99035.84;;;0.71;95.11
10720;BME280;5411;58.386;15.560;2023-03-26T14:07:02;99052.63;;;0.70;95.97
10720;BME280;5411;58.386;15.560;2023-03-26T14:09:36;99049.56;;;0.58;95.79